Time;durP1;ratioP1;P1;durP2;ratioP2;P2;SDS_P1;SDS_P2;PMS_P1;PMS_P2;Temp;Humidity;BMP_temperature;BMP_pressure;BME280_temperature;BME280_humidity;BME280_pressure;Samples;Min_cycle;Max_cycle;Signal;HPM_P1;HPM_P2
2022/11/11 00:02:00;;;;;;;32.22;14.20;;;11.10;99.90;;;10.35;100.00;102485.13;4087911;29;20043;-79
2022/11/11 00:04:00;;;;;;;23.90;13.18;;;11.10;99.90;;;10.36;100.00;102483.34;4087809;29;20027;-79
2022/11/11 00:06:09;;;;;;;23.15;13.48;;;11.20;99.90;;;10.37;100.00;102477.09;4086823;29;20035;-79
2022/11/11 00:08:09;;;;;;;24.67;13.82;;;11.10;99.90;;;10.28;100.00;102470.69;4086691;29;20045;-79
2022/11/11 00:10:10;;;;;;;24.33;14.05;;;11.10;99.90;;;10.31;100.00;102473.09;4070307;29;20115;-79
2022/11/11 00:12:11;;;;;;;21.17;12.57;;;11.20;99.90;;;10.29;100.00;102467.09;4070875;29;20032;-79
2022/11/11 00:14:12;;;;;;;27.10;13.82;;;11.10;99.90;;;10.30;100.00;102474.06;4086737;29;20053;-78
2022/11/11 00:16:19;;;;;;;21.00;13.07;;;11.10;99.90;;;10.32;100.00;102479.22;4089829;29;20086;-79
2022/11/11 00:25:21;;;;;;;23.30;12.95;;;11.20;99.90;;;10.30;100.00;102457.41;4089769;29;20046;-79
2022/11/11 00:27:21;;;;;;;22.17;13.13;;;11.10;99.90;;;10.29;100.00;102463.63;4089523;29;20028;-79
2022/11/11 00:29:22;;;;;;;25.58;13.02;;;11.10;99.90;;;10.28;100.00;102461.94;4089812;29;20031;-79
2022/11/11 00:31:23;;;;;;;17.65;11.30;;;11.10;99.90;;;10.23;100.00;102459.63;4089090;29;20401;-79
2022/11/11 00:33:24;;;;;;;15.52;11.23;;;11.10;99.90;;;10.20;100.00;102453.75;4090701;29;20031;-79
2022/11/11 00:37:47;;;;;;;22.42;12.50;;;11.00;99.90;;;10.11;100.00;102451.75;4089723;29;20149;-79
2022/11/11 00:39:48;;;;;;;21.30;11.27;;;11.00;99.90;;;10.14;100.00;102457.66;4089378;29;20024;-79
2022/11/11 00:41:49;;;;;;;18.52;11.95;;;11.00;99.90;;;10.11;100.00;102451.75;4089549;29;20475;-79
2022/11/11 00:43:50;;;;;;;19.33;11.35;;;11.00;99.90;;;10.15;100.00;102453.25;4089574;29;20035;-79
2022/11/11 00:45:51;;;;;;;20.20;11.65;;;11.00;99.90;;;10.16;100.00;102454.91;4101945;29;20476;-79
2022/11/11 00:52:36;;;;;;;;;;;11.00;99.90;;;10.07;100.00;102450.25;4089450;29;20083;-79
2022/11/11 00:54:37;;;;;;;19.52;10.13;;;10.90;99.90;;;10.01;100.00;102449.78;4090135;29;20001;-79
2022/11/11 00:56:38;;;;;;;15.38;10.60;;;10.90;99.90;;;9.90;100.00;102439.16;4090371;29;20040;-79
2022/11/11 00:58:39;;;;;;;16.15;9.82;;;10.80;99.90;;;9.90;100.00;102443.59;4085680;29;20035;-80
2022/11/11 01:00:40;;;;;;;19.27;11.10;;;10.80;99.90;;;9.87;100.00;102439.38;4099606;29;20028;-79
2022/11/11 01:02:41;;;;;;;21.55;11.60;;;10.70;99.90;;;9.82;100.00;102435.41;4090435;29;20024;-80
2022/11/11 01:04:42;;;;;;;15.80;10.15;;;10.70;99.90;;;9.78;100.00;102431.28;4104805;29;20038;-79
2022/11/11 01:06:42;;;;;;;23.65;10.88;;;10.60;99.90;;;9.68;100.00;102422.34;4090048;29;20447;-79
2022/11/11 01:08:43;;;;;;;14.82;9.80;;;10.50;99.90;;;9.66;100.00;102427.72;4089795;29;20101;-79
2022/11/11 01:10:46;;;;;;;18.38;10.45;;;10.40;99.90;;;9.60;100.00;102430.81;4090000;29;20028;-79
2022/11/11 01:12:47;;;;;;;18.48;10.63;;;10.40;99.90;;;9.56;100.00;102437.22;4072935;29;20068;-79
2022/11/11 01:14:48;;;;;;;17.38;9.68;;;10.40;99.90;;;9.53;100.00;102439.25;4090184;29;20047;-79
2022/11/11 01:16:49;;;;;;;18.30;9.40;;;10.30;99.90;;;9.48;100.00;102430.81;4089826;29;20495;-79
2022/11/11 01:18:52;;;;;;;18.73;10.25;;;10.30;99.90;;;9.43;100.00;102418.84;4090094;29;20042;-79
2022/11/11 01:21:05;;;;;;;16.38;9.05;;;10.20;99.90;;;9.37;100.00;102421.91;4104398;29;20046;-79
2022/11/11 01:23:07;;;;;;;14.95;9.60;;;10.20;99.90;;;9.31;100.00;102421.47;4104406;29;20126;-79
2022/11/11 01:25:08;;;;;;;18.30;9.30;;;10.10;99.90;;;9.17;100.00;102405.81;4104015;28;20054;-79
2022/11/11 01:27:09;;;;;;;14.55;9.30;;;10.00;99.90;;;9.14;100.00;102412.09;4089845;29;20408;-79
2022/11/11 01:29:10;;;;;;;15.30;9.20;;;10.00;99.90;;;9.11;100.00;102422.03;4088527;29;20495;-79
2022/11/11 01:31:16;;;;;;;19.33;9.23;;;9.90;99.90;;;9.02;100.00;102418.19;4085782;29;20051;-79
2022/11/11 01:33:16;;;;;;;17.80;9.82;;;9.80;99.90;;;8.95;100.00;102419.59;4073048;29;20047;-79
2022/11/11 01:35:17;;;;;;;13.65;8.60;;;9.80;99.90;;;8.85;100.00;102416.72;4088759;29;20019;-79
2022/11/11 01:37:18;;;;;;;15.48;9.18;;;9.70;99.90;;;8.81;100.00;102420.50;4089401;29;20047;-79
2022/11/11 01:39:19;;;;;;;14.10;8.40;;;9.60;99.90;;;8.71;100.00;102414.19;4089453;29;20559;-79
2022/11/11 01:41:34;;;;;;;16.40;8.73;;;9.60;99.90;;;8.69;100.00;102428.41;4089492;29;20472;-79
2022/11/11 01:43:34;;;;;;;;;;;9.50;99.90;;;8.55;100.00;102424.03;4090032;29;20027;-79
2022/11/11 01:45:58;;;;;;;15.68;8.25;;;9.40;99.90;;;8.49;100.00;102426.25;4089146;29;19921;-79
2022/11/11 01:50:19;;;;;;;16.45;8.88;;;9.30;99.90;;;8.39;100.00;102428.66;4088553;29;20034;-79
2022/11/11 01:52:34;;;;;;;17.25;9.18;;;9.30;99.90;;;8.36;100.00;102422.75;4104197;29;20039;-79
2022/11/11 01:54:55;;;;;;;14.80;8.30;;;9.20;99.90;;;8.33;100.00;102426.44;4089346;29;20106;-79
2022/11/11 01:57:07;;;;;;;15.65;8.45;;;9.20;99.90;;;8.27;100.00;102414.50;4089525;29;20123;-79
2022/11/11 01:59:13;;;;;;;11.65;8.27;;;9.10;99.90;;;8.19;100.00;102408.03;4089437;29;20425;-79
2022/11/11 02:01:14;;;;;;;16.80;9.13;;;9.10;99.90;;;8.17;100.00;102415.19;4104026;29;20435;-79
2022/11/11 02:03:16;;;;;;;16.35;9.95;;;9.00;99.90;;;8.09;100.00;102406.97;4089340;29;20028;-79
2022/11/11 02:07:41;;;;;;;18.60;9.68;;;8.90;99.90;;;7.97;100.00;102405.13;4101720;29;20070;-79
2022/11/11 02:09:46;;;;;;;14.88;8.65;;;8.80;99.90;;;7.90;100.00;102403.81;4103531;29;20078;-79
2022/11/11 02:16:28;;;;;;;15.82;8.75;;;8.70;99.90;;;7.79;100.00;102415.84;4102353;28;20038;-79
2022/11/11 02:18:30;;;;;;;14.82;9.68;;;8.60;99.90;;;7.76;100.00;102418.66;4105177;28;20031;-79
2022/11/11 02:20:39;;;;;;;18.05;10.13;;;8.60;99.90;;;7.72;100.00;102409.31;4089127;29;20499;-79
2022/11/11 02:22:49;;;;;;;14.45;9.25;;;8.60;99.90;;;7.70;100.00;102411.19;4088963;29;20043;-79
2022/11/11 02:24:52;;;;;;;18.67;10.68;;;8.50;99.90;;;7.64;100.00;102403.72;4087191;29;20028;-79
2022/11/11 02:26:56;;;;;;;16.95;9.80;;;8.50;99.90;;;7.62;100.00;102409.97;4103477;29;20055;-79
2022/11/11 02:28:58;;;;;;;18.77;10.88;;;8.50;99.90;;;7.56;100.00;102405.94;4103663;28;20043;-79
2022/11/11 02:30:59;;;;;;;17.40;10.27;;;8.50;99.90;;;7.56;100.00;102405.09;4087637;29;20055;-79
2022/11/11 02:33:00;;;;;;;15.93;10.75;;;8.40;99.90;;;7.52;100.00;102407.09;4088847;29;20027;-79
2022/11/11 02:35:01;;;;;;;20.52;11.30;;;8.40;99.90;;;7.47;100.00;102405.66;4092534;29;20090;-79
2022/11/11 02:37:06;;;;;;;23.33;12.82;;;8.40;99.90;;;7.46;100.00;102410.09;4097326;29;20032;-79
2022/11/11 02:39:07;;;;;;;21.77;11.68;;;8.30;99.90;;;7.39;100.00;102408.78;4103027;29;20030;-79
2022/11/11 02:43:29;;;;;;;17.17;11.02;;;8.20;99.90;;;7.36;100.00;102418.63;4088699;29;20067;-79
2022/11/11 02:45:30;;;;;;;20.95;10.73;;;8.20;99.90;;;7.28;100.00;102402.50;4112490;28;20030;-79
2022/11/11 02:47:31;;;;;;;15.27;9.85;;;8.20;99.90;;;7.29;100.00;102409.47;4090823;29;20035;-79
2022/11/11 02:49:32;;;;;;;17.42;11.55;;;8.20;99.90;;;7.27;100.00;102408.69;4088879;29;20035;-79
2022/11/11 02:51:32;;;;;;;20.35;10.63;;;8.10;99.90;;;7.24;100.00;102405.31;4087494;29;20040;-79
2022/11/11 02:53:33;;;;;;;20.55;11.57;;;8.10;99.90;;;7.15;100.00;102402.41;4087258;29;20488;-79
2022/11/11 02:55:34;;;;;;;18.00;10.70;;;8.10;99.90;;;7.19;100.00;102403.91;4088420;29;20083;-79
2022/11/11 02:57:36;;;;;;;17.98;11.27;;;8.10;99.90;;;7.20;100.00;102409.06;4087405;29;20032;-79
2022/11/11 02:59:39;;;;;;;16.83;10.98;;;8.10;99.90;;;7.22;100.00;102398.50;4088607;29;20038;-79
2022/11/11 03:01:40;;;;;;;19.87;12.33;;;8.10;99.90;;;7.24;100.00;102401.84;4087337;29;20035;-79
2022/11/11 03:03:41;;;;;;;19.00;11.63;;;8.10;99.90;;;7.23;100.00;102393.13;4087295;29;20767;-79
2022/11/11 03:05:42;;;;;;;16.70;12.27;;;8.10;99.90;;;7.22;100.00;102393.25;4088542;29;20083;-79
2022/11/11 03:07:43;;;;;;;21.38;11.38;;;8.10;99.90;;;7.28;100.00;102400.75;4087321;29;20024;-79
2022/11/11 03:09:43;;;;;;;21.33;12.10;;;8.10;99.90;;;7.35;100.00;102393.34;4087065;29;20035;-79
2022/11/11 03:11:44;;;;;;;18.77;12.18;;;8.20;99.90;;;7.39;100.00;102403.53;4071394;29;20427;-79
2022/11/11 03:13:45;;;;;;;23.63;12.70;;;8.20;99.90;;;7.47;100.00;102400.41;4088326;29;20032;-79
2022/11/11 03:15:46;;;;;;;17.45;11.65;;;8.30;99.90;;;7.52;100.00;102398.38;4088330;29;20023;-79
2022/11/11 03:17:47;;;;;;;19.05;12.68;;;8.40;99.90;;;7.57;100.00;102391.88;4088356;29;20024;-79
2022/11/11 03:19:48;;;;;;;20.48;12.95;;;8.40;99.90;;;7.59;100.00;102394.41;4088214;29;20476;-79
2022/11/11 03:21:48;;;;;;;21.85;13.63;;;8.40;99.90;;;7.63;100.00;102396.75;4086918;29;20043;-79
2022/11/11 03:23:49;;;;;;;30.77;13.15;;;8.50;99.90;;;7.69;100.00;102399.00;4087197;29;20019;-79
2022/11/11 03:25:50;;;;;;;45.58;15.10;;;8.50;99.90;;;7.69;100.00;102388.50;4088020;29;20051;-79
2022/11/11 03:27:51;;;;;;;21.98;12.02;;;8.60;99.90;;;7.69;100.00;102390.25;4088201;29;20031;-79
2022/11/11 03:29:52;;;;;;;20.00;12.50;;;8.60;99.90;;;7.72;100.00;102392.69;4087858;29;20028;-78
2022/11/11 03:31:53;;;;;;;18.65;12.85;;;8.60;99.90;;;7.68;100.00;102388.56;4088183;29;20032;-79
2022/11/11 03:33:54;;;;;;;28.60;12.98;;;8.60;99.90;;;7.71;100.00;102393.63;4086987;29;20476;-79
2022/11/11 03:35:54;;;;;;;36.40;15.13;;;8.60;99.90;;;7.70;100.00;102391.97;4088142;29;20052;-79
2022/11/11 03:40:15;;;;;;;29.95;12.70;;;8.60;99.90;;;7.65;100.00;102389.63;4086967;29;20039;-79
2022/11/11 03:42:16;;;;;;;20.00;11.98;;;8.60;99.90;;;7.64;100.00;102387.09;4088086;29;20039;-79
2022/11/11 03:44:16;;;;;;;17.85;11.93;;;8.50;99.90;;;7.64;100.00;102385.31;4086927;29;20023;-79
2022/11/11 03:46:17;;;;;;;25.00;12.32;;;8.50;99.90;;;7.64;100.00;102390.56;4103408;28;20038;-79
2022/11/11 03:48:18;;;;;;;20.35;10.98;;;8.50;99.90;;;7.61;100.00;102392.53;4088295;29;20072;-79
2022/11/11 03:50:20;;;;;;;24.13;12.52;;;8.50;99.90;;;7.64;100.00;102387.94;4106239;29;20031;-79
2022/11/11 03:52:21;;;;;;;18.27;11.27;;;8.50;99.90;;;7.63;100.00;102391.50;4090086;29;20027;-79
2022/11/11 03:54:22;;;;;;;21.55;12.50;;;8.50;99.90;;;7.59;100.00;102379.50;4105842;29;20506;-79
2022/11/11 03:56:23;;;;;;;29.15;12.20;;;8.60;99.90;;;7.63;100.00;102381.00;4091256;29;20078;-79
2022/11/11 03:58:24;;;;;;;16.33;11.88;;;8.60;99.90;;;7.66;100.00;102393.94;4091137;29;20079;-79
2022/11/11 04:00:27;;;;;;;18.67;12.50;;;8.60;99.90;;;7.66;100.00;102391.31;4105831;29;20031;-79
2022/11/11 04:11:48;;;;;;;20.67;12.38;;;8.50;99.90;;;7.65;100.00;102386.97;4091178;29;20506;-79
2022/11/11 04:16:09;;;;;;;17.90;11.00;;;8.50;99.90;;;7.69;100.00;102391.13;4103333;29;20081;-78
2022/11/11 04:18:10;;;;;;;24.08;12.00;;;8.60;99.90;;;7.71;100.00;102388.38;4093099;29;20024;-79
2022/11/11 04:22:31;;;;;;;19.50;11.75;;;8.60;99.90;;;7.68;100.00;102384.16;4090850;29;20039;-79
2022/11/11 04:26:55;;;;;;;15.07;10.88;;;8.60;99.90;;;7.72;100.00;102379.56;4090756;29;20123;-79
2022/11/11 04:31:15;;;;;;;34.70;11.95;;;8.60;99.90;;;7.70;100.00;102384.94;4090521;29;20363;-80
2022/11/11 04:33:15;;;;;;;38.72;11.10;;;8.60;99.90;;;7.66;100.00;102378.19;4089578;29;20032;-79
2022/11/11 04:35:17;;;;;;;15.93;10.63;;;8.60;99.90;;;7.74;100.00;102389.03;4090578;29;20040;-79
2022/11/11 04:37:18;;;;;;;17.88;11.13;;;8.60;99.90;;;7.76;100.00;102384.50;4073619;29;20032;-79
2022/11/11 04:41:39;;;;;;;16.05;10.73;;;8.70;99.90;;;7.80;100.00;102375.50;4090999;29;20043;-79
2022/11/11 04:46:00;;;;;;;18.83;11.10;;;8.70;99.90;;;7.87;100.00;102380.38;4102200;29;20034;-79
2022/11/11 04:48:07;;;;;;;22.33;11.75;;;8.80;99.90;;;7.90;100.00;102382.78;4089363;29;20038;-79
2022/11/11 04:50:08;;;;;;;17.67;9.70;;;8.80;99.90;;;7.91;100.00;102374.84;4089416;29;20110;-79
2022/11/11 04:52:25;;;;;;;31.25;11.43;;;8.80;99.90;;;7.99;100.00;102376.94;4090359;29;20107;-79
2022/11/11 04:54:25;;;;;;;26.67;11.30;;;8.90;99.90;;;7.99;100.00;102374.31;4094041;29;20115;-79
2022/11/11 04:58:46;;;;;;;18.70;10.13;;;8.90;99.90;;;7.94;100.00;102371.16;4090152;29;20088;-79
2022/11/11 05:00:47;;;;;;;42.08;11.68;;;8.90;99.90;;;7.96;100.00;102371.91;4104139;28;20031;-80
2022/11/11 05:05:07;;;;;;;22.77;9.82;;;8.90;99.90;;;7.94;100.00;102368.53;4075781;29;20096;-80
2022/11/11 05:09:27;;;;;;;20.25;10.18;;;8.90;99.90;;;8.00;100.00;102376.00;4102538;29;20510;-79
2022/11/11 05:11:31;;;;;;;21.38;9.85;;;8.90;99.90;;;8.00;100.00;102355.84;4090033;29;20028;-79
2022/11/11 05:22:50;;;;;;;23.63;9.13;;;9.00;99.90;;;8.04;100.00;102357.31;4090069;29;20066;-79
2022/11/11 05:27:11;;;;;;;17.88;9.55;;;9.00;99.90;;;8.06;100.00;102367.75;4089988;29;20043;-79
2022/11/11 05:29:11;;;;;;;21.23;8.70;;;9.00;99.90;;;8.08;100.00;102366.69;4089793;29;20028;-79
2022/11/11 05:31:12;;;;;;;17.00;8.27;;;9.00;99.90;;;8.04;100.00;102362.56;4089743;29;20056;-80
2022/11/11 05:33:13;;;;;;;21.40;8.95;;;9.00;99.90;;;8.08;100.00;102364.06;4088519;29;20035;-79
2022/11/11 05:35:15;;;;;;;18.10;8.38;;;9.00;99.90;;;8.06;100.00;102358.06;4089945;29;20035;-80
2022/11/11 05:37:16;;;;;;;23.63;8.45;;;9.00;99.90;;;8.05;100.00;102355.53;4088546;29;20035;-79
2022/11/11 05:39:17;;;;;;;11.55;7.63;;;9.00;99.90;;;8.04;100.00;102359.94;4088374;29;20039;-80
2022/11/11 05:41:18;;;;;;;9.45;6.60;;;9.00;99.90;;;8.08;100.00;102357.97;4088444;29;20023;-80
2022/11/11 05:43:19;;;;;;;12.15;6.95;;;9.00;99.90;;;8.05;100.00;102355.53;4072832;29;20032;-79
2022/11/11 05:45:20;;;;;;;11.68;7.20;;;9.00;99.90;;;8.03;100.00;102347.75;4095886;29;20438;-79
2022/11/11 05:47:21;;;;;;;8.63;6.38;;;9.00;99.90;;;8.09;100.00;102352.63;4093729;29;20032;-80
2022/11/11 05:49:23;;;;;;;30.17;7.70;;;9.00;99.90;;;8.12;100.00;102355.00;4089423;29;20408;-80
2022/11/11 05:51:26;;;;;;;12.48;5.95;;;9.00;99.90;;;8.12;100.00;102346.31;4072473;29;20036;-80
2022/11/11 05:53:27;;;;;;;11.05;6.88;;;9.00;99.90;;;8.12;100.00;102352.38;4089396;29;20027;-79
2022/11/11 05:55:28;;;;;;;25.27;6.97;;;9.00;99.90;;;8.09;100.00;102342.09;4072263;29;20024;-79
2022/11/11 05:57:29;;;;;;;16.52;6.25;;;9.00;99.90;;;8.13;100.00;102348.81;4088078;29;20043;-79
2022/11/11 05:59:30;;;;;;;12.93;6.50;;;9.00;99.90;;;8.09;100.00;102347.34;4089472;29;20480;-80
2022/11/11 06:01:31;;;;;;;9.07;6.07;;;9.00;99.90;;;8.13;100.00;102355.84;4088187;29;20095;-79
2022/11/11 06:03:32;;;;;;;20.67;6.40;;;9.00;99.90;;;8.11;100.00;102347.25;4088171;29;20035;-80
2022/11/11 06:05:36;;;;;;;13.77;5.20;;;9.00;99.90;;;8.08;100.00;102356.19;4087708;29;20095;-79
2022/11/11 06:07:39;;;;;;;8.50;5.47;;;9.00;99.90;;;8.06;100.00;102357.22;4089304;29;20032;-80
2022/11/11 06:09:39;;;;;;;14.65;5.90;;;9.00;99.90;;;8.05;100.00;102355.53;4087829;29;20031;-79
2022/11/11 06:11:40;;;;;;;9.82;5.32;;;8.90;99.90;;;8.08;100.00;102357.97;4088673;29;20031;-79
2022/11/11 06:13:41;;;;;;;14.68;5.55;;;8.90;99.90;;;8.05;100.00;102358.16;4088485;29;20039;-79
2022/11/11 06:15:42;;;;;;;11.90;5.45;;;9.00;99.90;;;8.06;100.00;102362.47;4088208;29;20447;-79
2022/11/11 06:17:43;;;;;;;8.70;5.15;;;9.00;99.90;;;8.09;100.00;102364.91;4087998;29;20033;-80
2022/11/11 06:19:44;;;;;;;8.38;4.93;;;9.00;99.90;;;8.10;100.00;102366.56;4089258;29;20439;-80
2022/11/11 06:21:57;;;;;;;12.27;5.28;;;9.00;99.90;;;8.12;100.00;102356.81;4087759;29;20111;-79
2022/11/11 06:23:58;;;;;;;9.68;4.35;;;9.00;99.90;;;8.16;100.00;102361.75;4087846;29;20523;-79
2022/11/11 06:26:14;;;;;;;9.48;5.15;;;9.00;99.90;;;8.18;100.00;102357.22;4087834;29;20059;-79
2022/11/11 06:28:16;;;;;;;7.38;4.00;;;9.10;99.90;;;8.17;100.00;102354.72;4088752;29;20039;-79
2022/11/11 06:30:17;;;;;;;6.60;3.75;;;9.10;99.90;;;8.13;100.00;102342.72;4103399;29;20058;-79
2022/11/11 06:32:18;;;;;;;7.40;4.35;;;9.00;99.90;;;8.16;100.00;102353.88;4087608;29;20019;-79
2022/11/11 06:34:28;;;;;;;11.32;4.40;;;9.00;99.90;;;8.17;100.00;102349.47;4233167;27;20391;-80
2022/11/11 06:36:29;;;;;;;4.88;3.90;;;9.00;99.90;;;8.16;100.00;102351.25;4231786;28;20503;-80
2022/11/11 06:38:30;;;;;;;7.63;3.78;;;9.00;99.90;;;8.13;100.00;102348.81;4216197;28;20114;-80
2022/11/11 06:40:31;;;;;;;9.50;4.47;;;9.00;99.90;;;8.15;100.00;102352.19;4214877;28;20028;-80
2022/11/11 06:42:36;;;;;;;16.58;4.45;;;9.00;99.90;;;8.15;100.00;102351.38;4211099;28;20103;-80
2022/11/11 06:44:37;;;;;;;14.85;5.13;;;9.00;99.90;;;8.16;100.00;102355.66;4214770;28;20080;-80
2022/11/11 06:46:38;;;;;;;37.67;6.40;;;9.00;99.90;;;8.15;100.00;102365.31;4215007;28;20024;-80
2022/11/11 06:48:41;;;;;;;7.60;4.88;;;9.00;99.90;;;8.13;100.00;102363.75;4216086;28;20028;-80
2022/11/11 06:50:42;;;;;;;9.18;4.85;;;9.00;99.90;;;8.12;100.00;102362.09;4216111;28;20024;-80
2022/11/11 06:52:44;;;;;;;11.63;5.22;;;9.00;99.90;;;8.13;100.00;102363.75;4214907;28;20102;-80
2022/11/11 06:54:44;;;;;;;8.82;4.32;;;9.00;99.90;;;8.10;100.00;102359.53;4197781;28;20068;-81
2022/11/11 06:56:48;;;;;;;8.60;4.20;;;9.00;99.90;;;8.10;100.00;102361.31;4208764;28;20074;-81
2022/11/11 06:58:48;;;;;;;8.15;4.35;;;9.00;99.90;;;8.09;100.00;102359.66;4214796;28;20024;-81
2022/11/11 07:00:50;;;;;;;11.82;4.65;;;9.00;99.90;;;8.06;100.00;102360.69;4214451;28;20031;-81
2022/11/11 07:02:55;;;;;;;16.45;4.25;;;9.00;99.90;;;8.07;100.00;102362.38;4204053;28;20166;-80
2022/11/11 07:04:56;;;;;;;11.40;5.20;;;9.00;99.90;;;8.09;100.00;102365.75;4209066;28;20491;-81
2022/11/11 07:06:56;;;;;;;10.18;4.10;;;9.00;99.90;;;8.03;100.00;102357.44;4215879;28;20036;-81
2022/11/11 07:08:57;;;;;;;6.72;3.72;;;9.00;99.90;;;8.04;100.00;102362.56;4215520;28;20488;-81
2022/11/11 07:10:58;;;;;;;8.23;3.78;;;9.00;99.90;;;8.03;100.00;102360.06;4214626;28;20032;-81
2022/11/11 07:12:59;;;;;;;9.20;3.50;;;9.00;99.90;;;7.99;100.00;102369.06;4207833;28;20055;-81
2022/11/11 07:15:00;;;;;;;8.85;3.50;;;8.90;99.90;;;7.94;100.00;102369.38;4211003;28;20032;-81
2022/11/11 07:17:01;;;;;;;18.90;4.07;;;8.90;99.90;;;7.88;100.00;102366.28;4214476;28;20469;-81
2022/11/11 07:19:02;;;;;;;4.50;3.17;;;8.90;99.90;;;7.91;100.00;102364.31;4214573;28;20036;-81
2022/11/11 07:21:03;;;;;;;9.23;3.90;;;8.80;99.90;;;7.92;100.00;102355.47;4215404;28;20080;-81
2022/11/11 07:23:04;;;;;;;8.77;4.10;;;8.80;99.90;;;7.91;100.00;102347.72;4215560;28;20119;-81
2022/11/11 07:25:06;;;;;;;4.20;3.28;;;8.80;99.90;;;7.94;100.00;102355.38;4214195;28;20064;-81
2022/11/11 07:27:07;;;;;;;9.88;4.80;;;8.90;99.90;;;7.99;100.00;102351.53;4213985;28;20101;-81
2022/11/11 07:29:11;;;;;;;7.60;4.13;;;8.90;99.90;;;7.98;100.00;102354.22;4212344;28;20099;-81
2022/11/11 07:31:17;;;;;;;11.20;4.22;;;8.90;99.90;;;7.99;100.00;102345.41;4212428;28;20065;-80
2022/11/11 07:33:17;;;;;;;7.90;4.57;;;8.90;99.90;;;7.97;100.00;102347.31;4201960;28;20032;-81
2022/11/11 07:35:20;;;;;;;8.25;4.20;;;8.90;99.90;;;8.02;100.00;102340.81;4214199;28;20027;-81
2022/11/11 07:37:21;;;;;;;6.28;4.63;;;8.90;99.90;;;8.03;100.00;102344.28;4208271;28;20027;-81
2022/11/11 07:39:22;;;;;;;9.35;5.50;;;8.90;99.90;;;8.12;100.00;102351.56;4213873;28;20059;-81
2022/11/11 07:41:23;;;;;;;8.02;5.53;;;9.00;99.90;;;8.10;100.00;102350.81;4202088;28;20495;-81
2022/11/11 07:43:24;;;;;;;16.65;6.30;;;9.00;99.90;;;8.08;100.00;102345.66;4215343;28;20098;-81
2022/11/11 07:45:25;;;;;;;9.35;5.93;;;9.00;99.90;;;8.16;100.00;102355.66;4206089;28;20021;-81
2022/11/11 07:47:26;;;;;;;15.13;6.20;;;9.00;99.90;;;8.16;100.00;102348.63;4204070;28;20032;-81
2022/11/11 07:49:27;;;;;;;12.55;6.82;;;9.10;99.90;;;8.23;100.00;102357.78;4202839;28;20380;-81
2022/11/11 07:51:28;;;;;;;11.60;7.47;;;9.10;99.90;;;8.23;100.00;102349.06;4193565;28;20032;-80
2022/11/11 07:53:28;;;;;;;16.90;7.57;;;9.20;99.90;;;8.30;100.00;102355.63;4203915;28;20029;-81
2022/11/11 07:55:29;;;;;;;10.50;6.15;;;9.20;99.90;;;8.30;100.00;102366.16;4202533;28;20035;-81
2022/11/11 07:57:30;;;;;;;8.20;5.50;;;9.20;99.90;;;8.30;100.00;102360.91;4203586;28;20544;-81
2022/11/11 07:59:31;;;;;;;10.77;5.40;;;9.20;99.90;;;8.31;100.00;102365.19;4203918;28;20553;-81
2022/11/11 08:01:32;;;;;;;9.38;5.32;;;9.20;99.90;;;8.32;100.00;102359.84;4203872;28;20476;-80
2022/11/11 08:03:33;;;;;;;12.73;5.40;;;9.20;99.90;;;8.34;100.00;102372.88;4202641;28;20041;-81
2022/11/11 08:05:33;;;;;;;7.15;4.95;;;9.30;99.90;;;8.35;100.00;102385.09;4202827;28;20033;-81
2022/11/11 08:07:35;;;;;;;6.95;4.68;;;9.30;99.90;;;8.32;100.00;102372.16;4203817;28;20043;-81
2022/11/11 08:09:36;;;;;;;6.63;4.68;;;9.30;99.90;;;8.37;100.00;102377.94;4202379;28;20024;-81
2022/11/11 08:13:56;;;;;;;7.70;4.90;;;9.30;99.90;;;8.41;100.00;102382.06;4191535;28;20086;-81
2022/11/11 08:15:57;;;;;;;5.72;4.43;;;9.30;99.90;;;8.35;100.00;102374.56;4203728;28;20024;-81
2022/11/11 08:17:58;;;;;;;5.15;4.07;;;9.30;99.90;;;8.47;100.00;102389.53;4203716;28;20061;-80
2022/11/11 08:19:59;;;;;;;4.68;4.10;;;9.40;99.90;;;8.47;100.00;102389.53;4202379;28;20024;-80
2022/11/11 08:22:00;;;;;;;8.60;4.78;;;9.30;99.90;;;8.49;100.00;102385.00;4190822;28;20017;-80
2022/11/11 08:24:00;;;;;;;5.85;4.57;;;9.40;99.90;;;8.43;100.00;102376.69;4202089;28;20037;-81
2022/11/11 08:26:05;;;;;;;6.63;4.72;;;9.30;99.90;;;8.44;100.00;102373.97;4197112;28;20541;-80
2022/11/11 08:28:05;;;;;;;6.88;4.15;;;9.40;99.90;;;8.47;100.00;102389.53;4203581;28;20035;-81
2022/11/11 08:30:09;;;;;;;6.47;4.43;;;9.30;99.90;;;8.47;100.00;102389.53;4203538;28;20037;-81
2022/11/11 08:32:10;;;;;;;6.88;4.60;;;9.30;99.90;;;8.47;100.00;102393.94;4202178;28;20032;-80
2022/11/11 08:34:11;;;;;;;9.93;5.22;;;9.40;99.90;;;8.47;100.00;102386.91;4195873;28;20099;-81
2022/11/11 08:36:12;;;;;;;9.05;4.90;;;9.40;99.90;;;8.50;100.00;102383.22;4199651;28;20020;-81
2022/11/11 08:38:13;;;;;;;4.97;4.20;;;9.40;99.90;;;8.50;100.00;102377.97;4189531;28;20024;-80
2022/11/11 08:40:15;;;;;;;6.15;4.07;;;9.40;99.90;;;8.57;100.00;102379.25;4202915;28;20028;-81
2022/11/11 08:42:17;;;;;;;8.32;4.65;;;9.50;99.90;;;8.59;100.00;102386.09;4201831;28;20103;-81
2022/11/11 08:44:18;;;;;;;8.55;5.15;;;9.50;99.90;;;8.60;100.00;102385.13;4201266;28;20032;-81
2022/11/11 08:46:19;;;;;;;11.52;4.22;;;9.50;99.90;;;8.58;100.00;102389.66;4203043;28;20025;-80
2022/11/11 08:48:20;;;;;;;8.75;4.20;;;9.50;99.90;;;8.62;100.00;102399.03;4203153;28;20035;-80
2022/11/11 08:50:21;;;;;;;8.48;4.47;;;9.60;99.90;;;8.66;100.00;102389.97;4201416;28;20016;-79
2022/11/11 08:52:22;;;;;;;14.35;5.00;;;9.60;99.90;;;8.68;100.00;102382.84;4199415;28;20051;-80
2022/11/11 08:54:23;;;;;;;6.55;3.90;;;9.60;99.90;;;8.66;100.00;102395.22;4190226;28;20036;-79
2022/11/11 08:56:23;;;;;;;7.88;3.80;;;9.60;99.90;;;8.72;100.00;102405.34;4202072;28;20032;-81
2022/11/11 08:58:24;;;;;;;8.52;4.80;;;9.60;99.90;;;8.78;100.00;102404.94;4202920;28;20025;-81
2022/11/11 09:00:26;;;;;;;7.15;3.78;;;9.60;99.90;;;8.80;100.00;102407.47;4202757;28;20029;-81
2022/11/11 09:02:27;;;;;;;8.95;4.20;;;9.70;99.90;;;8.90;100.00;102421.66;4201668;28;20020;-81
2022/11/11 09:04:27;;;;;;;4.38;3.70;;;9.80;99.90;;;8.92;100.00;102421.59;4201442;28;20032;-78
2022/11/11 09:06:29;;;;;;;4.82;3.70;;;9.80;99.90;;;8.96;100.00;102420.44;4187106;28;20036;-82
2022/11/11 09:08:30;;;;;;;19.70;5.07;;;9.80;99.90;;;8.96;100.00;102416.00;4199533;28;20020;-82
2022/11/11 09:10:31;;;;;;;5.57;4.85;;;9.90;99.90;;;8.99;100.00;102422.84;4204047;28;20059;-81
2022/11/11 09:12:32;;;;;;;7.70;4.95;;;9.80;99.90;;;9.03;100.00;102419.91;4192302;28;20557;-83
2022/11/11 09:14:33;;;;;;;5.90;4.53;;;9.90;99.90;;;9.08;100.00;102422.22;4205679;28;20029;-81
2022/11/11 09:16:34;;;;;;;12.73;5.40;;;9.90;99.90;;;9.12;100.00;102428.94;4190939;28;20484;-81
2022/11/11 09:18:35;;;;;;;7.13;5.45;;;10.00;99.90;;;9.18;100.00;102425.91;4195823;28;20019;-81
2022/11/11 09:20:36;;;;;;;13.15;6.05;;;10.00;99.90;;;9.24;100.00;102431.59;4194451;28;20040;-81
2022/11/11 09:22:44;;;;;;;4.80;3.92;;;10.10;99.90;;;9.29;100.00;102423.34;4205498;28;20059;-81
2022/11/11 09:24:44;;;;;;;6.45;4.18;;;10.20;99.90;;;9.36;100.00;102429.88;4200989;28;20056;-78
2022/11/11 09:26:49;;;;;;;5.88;4.00;;;10.20;99.90;;;9.38;100.00;102420.06;4189084;28;20017;-84
2022/11/11 09:28:50;;;;;;;4.57;3.75;;;10.30;99.90;;;9.42;100.00;102418.94;4193945;28;20033;-81
2022/11/11 09:30:51;;;;;;;4.13;3.20;;;10.30;99.90;;;9.50;100.00;102428.94;4201321;28;20028;-79
2022/11/11 09:32:52;;;;;;;3.85;3.10;;;10.30;99.90;;;9.50;100.00;102418.41;4202381;28;20045;-82
2022/11/11 09:34:54;;;;;;;4.50;3.92;;;10.40;99.90;;;9.56;100.00;102418.78;4202565;28;20020;-82
2022/11/11 09:36:54;;;;;;;4.85;3.47;;;10.40;99.90;;;9.58;100.00;102419.53;4200366;28;20020;-81
2022/11/11 09:38:55;;;;;;;5.72;3.95;;;10.50;99.90;;;9.61;100.00;102424.59;4209001;28;20032;-80